sensor_id;sensor_type;location;lat;lon;timestamp;temperature;humidity
38684;DHT22;24910;53.248;-6.134;2022-12-01T00:01:43;11.90;89.70
38684;DHT22;24910;53.248;-6.134;2022-12-01T00:04:12;11.90;89.60
38684;DHT22;24910;53.248;-6.134;2022-12-01T00:06:42;11.90;89.60
38684;DHT22;24910;53.248;-6.134;2022-12-01T00:09:11;11.80;89.50
38684;DHT22;24910;53.248;-6.134;2022-12-01T00:11:57;11.80;89.50
38684;DHT22;24910;53.248;-6.134;2022-12-01T00:14:26;11.80;89.50
38684;DHT22;24910;53.248;-6.134;2022-12-01T00:16:56;11.80;89.50
38684;DHT22;24910;53.248;-6.134;2022-12-01T00:19:26;11.70;89.30
38684;DHT22;24910;53.248;-6.134;2022-12-01T00:21:55;11.70;89.20
38684;DHT22;24910;53.248;-6.134;2022-12-01T00:24:24;11.70;89.10
38684;DHT22;24910;53.248;-6.134;2022-12-01T00:26:53;11.70;89.10
38684;DHT22;24910;53.248;-6.134;2022-12-01T00:29:22;11.70;89.00
38684;DHT22;24910;53.248;-6.134;2022-12-01T00:31:51;11.70;89.00
38684;DHT22;24910;53.248;-6.134;2022-12-01T00:34:23;11.70;88.80
38684;DHT22;24910;53.248;-6.134;2022-12-01T00:36:52;11.70;88.90
38684;DHT22;24910;53.248;-6.134;2022-12-01T00:39:21;11.70;88.80
38684;DHT22;24910;53.248;-6.134;2022-12-01T00:41:50;11.70;88.80
38684;DHT22;24910;53.248;-6.134;2022-12-01T00:44:21;11.70;88.70
38684;DHT22;24910;53.248;-6.134;2022-12-01T00:46:50;11.70;88.50
38684;DHT22;24910;53.248;-6.134;2022-12-01T00:49:19;11.60;88.40
38684;DHT22;24910;53.248;-6.134;2022-12-01T00:51:49;11.60;88.60
38684;DHT22;24910;53.248;-6.134;2022-12-01T00:54:18;11.60;89.50
38684;DHT22;24910;53.248;-6.134;2022-12-01T00:56:47;11.60;88.90
38684;DHT22;24910;53.248;-6.134;2022-12-01T00:59:16;11.50;89.00
38684;DHT22;24910;53.248;-6.134;2022-12-01T01:01:45;11.50;89.10
38684;DHT22;24910;53.248;-6.134;2022-12-01T01:04:14;11.50;89.10
38684;DHT22;24910;53.248;-6.134;2022-12-01T01:06:43;11.50;89.10
38684;DHT22;24910;53.248;-6.134;2022-12-01T01:09:14;11.50;89.10
38684;DHT22;24910;53.248;-6.134;2022-12-01T01:11:44;11.50;89.00
38684;DHT22;24910;53.248;-6.134;2022-12-01T01:14:13;11.60;89.00
38684;DHT22;24910;53.248;-6.134;2022-12-01T01:16:42;11.50;88.90
38684;DHT22;24910;53.248;-6.134;2022-12-01T01:19:11;11.50;88.80
38684;DHT22;24910;53.248;-6.134;2022-12-01T01:21:40;11.50;88.80
38684;DHT22;24910;53.248;-6.134;2022-12-01T01:24:09;11.60;88.80
38684;DHT22;24910;53.248;-6.134;2022-12-01T01:26:40;11.60;88.70
38684;DHT22;24910;53.248;-6.134;2022-12-01T01:29:09;11.60;88.70
38684;DHT22;24910;53.248;-6.134;2022-12-01T01:31:39;11.60;88.60
38684;DHT22;24910;53.248;-6.134;2022-12-01T01:34:08;11.60;88.60
38684;DHT22;24910;53.248;-6.134;2022-12-01T01:36:37;11.60;88.50
38684;DHT22;24910;53.248;-6.134;2022-12-01T01:39:06;11.70;88.60
38684;DHT22;24910;53.248;-6.134;2022-12-01T01:41:35;11.60;88.50
38684;DHT22;24910;53.248;-6.134;2022-12-01T01:47:08;11.70;88.60
38684;DHT22;24910;53.248;-6.134;2022-12-01T01:49:37;11.70;88.50
38684;DHT22;24910;53.248;-6.134;2022-12-01T01:52:07;11.70;88.50
38684;DHT22;24910;53.248;-6.134;2022-12-01T01:54:39;11.70;88.50
38684;DHT22;24910;53.248;-6.134;2022-12-01T01:57:11;11.70;88.70
38684;DHT22;24910;53.248;-6.134;2022-12-01T01:59:44;11.70;88.70
38684;DHT22;24910;53.248;-6.134;2022-12-01T02:02:15;11.70;88.80
38684;DHT22;24910;53.248;-6.134;2022-12-01T02:04:46;11.60;88.80
38684;DHT22;24910;53.248;-6.134;2022-12-01T02:07:17;11.70;88.90
38684;DHT22;24910;53.248;-6.134;2022-12-01T02:09:47;11.60;88.90
38684;DHT22;24910;53.248;-6.134;2022-12-01T02:12:37;11.60;88.90
38684;DHT22;24910;53.248;-6.134;2022-12-01T02:15:18;11.60;88.90
38684;DHT22;24910;53.248;-6.134;2022-12-01T02:17:59;11.60;88.90
38684;DHT22;24910;53.248;-6.134;2022-12-01T02:20:48;11.60;88.90
38684;DHT22;24910;53.248;-6.134;2022-12-01T02:23:43;11.50;88.80
38684;DHT22;24910;53.248;-6.134;2022-12-01T02:26:38;11.50;88.90
38684;DHT22;24910;53.248;-6.134;2022-12-01T02:32:21;11.40;88.90
38684;DHT22;24910;53.248;-6.134;2022-12-01T02:35:02;11.40;88.80
38684;DHT22;24910;53.248;-6.134;2022-12-01T02:37:35;11.40;88.80
38684;DHT22;24910;53.248;-6.134;2022-12-01T02:40:13;11.40;88.80
38684;DHT22;24910;53.248;-6.134;2022-12-01T02:42:48;11.40;88.90
38684;DHT22;24910;53.248;-6.134;2022-12-01T02:45:27;11.40;88.90
38684;DHT22;24910;53.248;-6.134;2022-12-01T02:48:01;11.30;88.80
38684;DHT22;24910;53.248;-6.134;2022-12-01T02:50:34;11.30;89.00
38684;DHT22;24910;53.248;-6.134;2022-12-01T02:53:05;11.30;88.90
38684;DHT22;24910;53.248;-6.134;2022-12-01T02:55:35;11.20;88.90
38684;DHT22;24910;53.248;-6.134;2022-12-01T02:58:12;11.20;88.90
38684;DHT22;24910;53.248;-6.134;2022-12-01T03:00:53;11.20;88.90
38684;DHT22;24910;53.248;-6.134;2022-12-01T03:03:32;11.20;88.90
38684;DHT22;24910;53.248;-6.134;2022-12-01T03:06:09;11.20;88.90
38684;DHT22;24910;53.248;-6.134;2022-12-01T03:08:49;11.10;88.80
38684;DHT22;24910;53.248;-6.134;2022-12-01T03:11:24;11.10;88.80
38684;DHT22;24910;53.248;-6.134;2022-12-01T03:14:08;11.10;88.90
38684;DHT22;24910;53.248;-6.134;2022-12-01T03:16:48;11.10;89.00
38684;DHT22;24910;53.248;-6.134;2022-12-01T03:19:25;11.00;88.90
38684;DHT22;24910;53.248;-6.134;2022-12-01T03:21:58;11.00;89.00
38684;DHT22;24910;53.248;-6.134;2022-12-01T03:24:30;11.00;89.10
38684;DHT22;24910;53.248;-6.134;2022-12-01T03:27:01;11.00;89.10
38684;DHT22;24910;53.248;-6.134;2022-12-01T03:29:35;11.00;89.10
38684;DHT22;24910;53.248;-6.134;2022-12-01T03:32:09;11.00;89.20
38684;DHT22;24910;53.248;-6.134;2022-12-01T03:34:45;11.00;89.20
38684;DHT22;24910;53.248;-6.134;2022-12-01T03:37:21;11.00;89.20
38684;DHT22;24910;53.248;-6.134;2022-12-01T03:39:53;11.00;89.30
38684;DHT22;24910;53.248;-6.134;2022-12-01T03:42:31;11.10;89.50
38684;DHT22;24910;53.248;-6.134;2022-12-01T03:45:06;11.00;89.40
38684;DHT22;24910;53.248;-6.134;2022-12-01T03:47:37;11.10;89.50
38684;DHT22;24910;53.248;-6.134;2022-12-01T03:50:10;11.00;89.90
38684;DHT22;24910;53.248;-6.134;2022-12-01T03:52:46;11.00;89.50
38684;DHT22;24910;53.248;-6.134;2022-12-01T03:55:21;11.00;89.70
38684;DHT22;24910;53.248;-6.134;2022-12-01T03:57:55;11.00;89.70
38684;DHT22;24910;53.248;-6.134;2022-12-01T04:00:28;11.00;89.80
38684;DHT22;24910;53.248;-6.134;2022-12-01T04:02:59;11.00;89.90
38684;DHT22;24910;53.248;-6.134;2022-12-01T04:05:31;11.00;89.90
38684;DHT22;24910;53.248;-6.134;2022-12-01T04:08:00;11.00;90.00
38684;DHT22;24910;53.248;-6.134;2022-12-01T04:10:30;11.00;90.00
38684;DHT22;24910;53.248;-6.134;2022-12-01T04:12:59;11.10;90.10
38684;DHT22;24910;53.248;-6.134;2022-12-01T04:15:27;11.10;90.10
38684;DHT22;24910;53.248;-6.134;2022-12-01T04:17:56;11.10;90.10
38684;DHT22;24910;53.248;-6.134;2022-12-01T04:20:25;11.10;90.10
38684;DHT22;24910;53.248;-6.134;2022-12-01T04:22:56;11.10;90.20
38684;DHT22;24910;53.248;-6.134;2022-12-01T04:25:25;11.10;90.20
38684;DHT22;24910;53.248;-6.134;2022-12-01T04:27:54;11.10;90.20
38684;DHT22;24910;53.248;-6.134;2022-12-01T04:30:23;11.10;90.20
38684;DHT22;24910;53.248;-6.134;2022-12-01T04:32:52;11.10;90.20
38684;DHT22;24910;53.248;-6.134;2022-12-01T04:35:21;11.10;90.20
38684;DHT22;24910;53.248;-6.134;2022-12-01T04:37:50;11.20;90.20
38684;DHT22;24910;53.248;-6.134;2022-12-01T04:40:20;11.20;90.20
38684;DHT22;24910;53.248;-6.134;2022-12-01T04:42:49;11.20;90.20
38684;DHT22;24910;53.248;-6.134;2022-12-01T04:45:18;11.10;90.30
38684;DHT22;24910;53.248;-6.134;2022-12-01T04:47:47;11.20;90.30
38684;DHT22;24910;53.248;-6.134;2022-12-01T04:50:19;11.20;90.30
38684;DHT22;24910;53.248;-6.134;2022-12-01T04:52:48;11.20;90.30
38684;DHT22;24910;53.248;-6.134;2022-12-01T04:55:17;11.20;90.30
38684;DHT22;24910;53.248;-6.134;2022-12-01T04:57:48;11.20;90.30
38684;DHT22;24910;53.248;-6.134;2022-12-01T05:00:17;11.20;90.30
38684;DHT22;24910;53.248;-6.134;2022-12-01T05:02:46;11.20;90.40
38684;DHT22;24910;53.248;-6.134;2022-12-01T05:05:15;11.20;90.40
38684;DHT22;24910;53.248;-6.134;2022-12-01T05:07:44;11.20;90.50
38684;DHT22;24910;53.248;-6.134;2022-12-01T05:10:13;11.20;90.50
38684;DHT22;24910;53.248;-6.134;2022-12-01T05:12:45;11.20;90.50
38684;DHT22;24910;53.248;-6.134;2022-12-01T05:15:16;11.20;90.50
38684;DHT22;24910;53.248;-6.134;2022-12-01T05:17:45;11.20;90.50
38684;DHT22;24910;53.248;-6.134;2022-12-01T05:20:18;11.20;90.50
38684;DHT22;24910;53.248;-6.134;2022-12-01T05:23:05;11.20;90.50
38684;DHT22;24910;53.248;-6.134;2022-12-01T05:25:42;11.20;90.50
38684;DHT22;24910;53.248;-6.134;2022-12-01T05:28:12;11.20;90.50
38684;DHT22;24910;53.248;-6.134;2022-12-01T05:30:42;11.10;90.60
38684;DHT22;24910;53.248;-6.134;2022-12-01T05:33:11;11.20;90.60
38684;DHT22;24910;53.248;-6.134;2022-12-01T05:35:40;11.20;90.50
38684;DHT22;24910;53.248;-6.134;2022-12-01T05:38:09;11.20;90.50
38684;DHT22;24910;53.248;-6.134;2022-12-01T05:40:38;11.20;90.50
38684;DHT22;24910;53.248;-6.134;2022-12-01T05:43:07;11.20;90.50
38684;DHT22;24910;53.248;-6.134;2022-12-01T05:45:36;11.20;90.60
38684;DHT22;24910;53.248;-6.134;2022-12-01T05:48:07;11.20;90.60
38684;DHT22;24910;53.248;-6.134;2022-12-01T05:50:38;11.20;90.60
38684;DHT22;24910;53.248;-6.134;2022-12-01T05:53:08;11.20;90.60
38684;DHT22;24910;53.248;-6.134;2022-12-01T05:55:38;11.20;90.60
38684;DHT22;24910;53.248;-6.134;2022-12-01T05:58:08;11.20;90.60
38684;DHT22;24910;53.248;-6.134;2022-12-01T06:00:37;11.20;90.60
38684;DHT22;24910;53.248;-6.134;2022-12-01T06:03:13;11.20;90.70
38684;DHT22;24910;53.248;-6.134;2022-12-01T06:05:42;11.20;90.70
38684;DHT22;24910;53.248;-6.134;2022-12-01T06:08:11;11.20;90.70
38684;DHT22;24910;53.248;-6.134;2022-12-01T06:10:40;11.20;90.60
38684;DHT22;24910;53.248;-6.134;2022-12-01T06:13:10;11.20;90.70
38684;DHT22;24910;53.248;-6.134;2022-12-01T06:15:39;11.20;90.70
38684;DHT22;24910;53.248;-6.134;2022-12-01T06:18:08;11.20;90.70
38684;DHT22;24910;53.248;-6.134;2022-12-01T06:20:38;11.10;90.60
38684;DHT22;24910;53.248;-6.134;2022-12-01T06:23:07;11.10;90.70
38684;DHT22;24910;53.248;-6.134;2022-12-01T06:25:36;11.10;90.70
38684;DHT22;24910;53.248;-6.134;2022-12-01T06:28:05;11.10;90.70
38684;DHT22;24910;53.248;-6.134;2022-12-01T06:30:34;11.20;90.70
38684;DHT22;24910;53.248;-6.134;2022-12-01T06:33:03;11.20;90.70
38684;DHT22;24910;53.248;-6.134;2022-12-01T06:35:33;11.10;90.60
38684;DHT22;24910;53.248;-6.134;2022-12-01T06:38:04;11.10;90.60
38684;DHT22;24910;53.248;-6.134;2022-12-01T06:40:33;11.10;90.60
38684;DHT22;24910;53.248;-6.134;2022-12-01T06:43:02;11.00;90.70
38684;DHT22;24910;53.248;-6.134;2022-12-01T06:45:31;11.00;90.70
38684;DHT22;24910;53.248;-6.134;2022-12-01T06:48:00;11.10;90.70
38684;DHT22;24910;53.248;-6.134;2022-12-01T06:50:29;11.00;90.70
38684;DHT22;24910;53.248;-6.134;2022-12-01T06:52:58;11.00;90.70
38684;DHT22;24910;53.248;-6.134;2022-12-01T06:55:29;11.10;90.70
38684;DHT22;24910;53.248;-6.134;2022-12-01T06:57:58;11.00;90.70
38684;DHT22;24910;53.248;-6.134;2022-12-01T07:00:28;11.10;90.70
38684;DHT22;24910;53.248;-6.134;2022-12-01T07:02:57;11.10;90.70
38684;DHT22;24910;53.248;-6.134;2022-12-01T07:05:26;11.10;90.70
38684;DHT22;24910;53.248;-6.134;2022-12-01T07:07:55;11.00;90.70
38684;DHT22;24910;53.248;-6.134;2022-12-01T07:10:26;11.10;90.70
38684;DHT22;24910;53.248;-6.134;2022-12-01T07:12:57;11.10;90.70
38684;DHT22;24910;53.248;-6.134;2022-12-01T07:15:26;11.10;90.80
38684;DHT22;24910;53.248;-6.134;2022-12-01T07:17:55;11.10;90.70
38684;DHT22;24910;53.248;-6.134;2022-12-01T07:20:24;11.10;90.70
38684;DHT22;24910;53.248;-6.134;2022-12-01T07:22:53;11.10;90.70
38684;DHT22;24910;53.248;-6.134;2022-12-01T07:25:23;11.10;90.70
38684;DHT22;24910;53.248;-6.134;2022-12-01T07:27:52;11.10;90.70
38684;DHT22;24910;53.248;-6.134;2022-12-01T07:30:22;11.10;90.70
38684;DHT22;24910;53.248;-6.134;2022-12-01T07:32:55;11.10;90.70
38684;DHT22;24910;53.248;-6.134;2022-12-01T07:35:24;11.00;90.60
38684;DHT22;24910;53.248;-6.134;2022-12-01T07:37:53;11.00;90.70
38684;DHT22;24910;53.248;-6.134;2022-12-01T07:40:24;11.00;90.70
38684;DHT22;24910;53.248;-6.134;2022-12-01T07:42:56;11.00;90.70
38684;DHT22;24910;53.248;-6.134;2022-12-01T07:45:26;11.00;90.70
38684;DHT22;24910;53.248;-6.134;2022-12-01T07:47:55;11.00;90.70
38684;DHT22;24910;53.248;-6.134;2022-12-01T07:50:24;11.00;90.70
38684;DHT22;24910;53.248;-6.134;2022-12-01T07:52:54;11.00;90.60
38684;DHT22;24910;53.248;-6.134;2022-12-01T07:55:23;11.00;90.60
38684;DHT22;24910;53.248;-6.134;2022-12-01T07:57:51;11.00;90.50
38684;DHT22;24910;53.248;-6.134;2022-12-01T08:00:21;10.90;90.50
38684;DHT22;24910;53.248;-6.134;2022-12-01T08:02:51;10.90;90.50
38684;DHT22;24910;53.248;-6.134;2022-12-01T08:05:20;10.90;90.50
38684;DHT22;24910;53.248;-6.134;2022-12-01T08:07:52;10.90;90.50
38684;DHT22;24910;53.248;-6.134;2022-12-01T08:10:22;10.80;90.50
38684;DHT22;24910;53.248;-6.134;2022-12-01T08:12:51;10.80;90.50
38684;DHT22;24910;53.248;-6.134;2022-12-01T08:15:20;10.90;90.50
38684;DHT22;24910;53.248;-6.134;2022-12-01T08:17:50;10.90;90.50
38684;DHT22;24910;53.248;-6.134;2022-12-01T08:20:19;10.90;90.50
38684;DHT22;24910;53.248;-6.134;2022-12-01T08:22:51;10.90;90.50
38684;DHT22;24910;53.248;-6.134;2022-12-01T08:25:20;10.80;90.50
38684;DHT22;24910;53.248;-6.134;2022-12-01T08:27:49;10.80;90.50
38684;DHT22;24910;53.248;-6.134;2022-12-01T08:30:18;10.90;90.50
38684;DHT22;24910;53.248;-6.134;2022-12-01T08:32:47;10.80;90.50
38684;DHT22;24910;53.248;-6.134;2022-12-01T08:35:18;10.90;90.50
38684;DHT22;24910;53.248;-6.134;2022-12-01T08:37:47;10.90;90.50
38684;DHT22;24910;53.248;-6.134;2022-12-01T08:40:19;10.90;90.50
38684;DHT22;24910;53.248;-6.134;2022-12-01T08:42:51;10.80;90.50
38684;DHT22;24910;53.248;-6.134;2022-12-01T08:45:20;10.90;90.50
38684;DHT22;24910;53.248;-6.134;2022-12-01T08:47:49;10.90;90.50
38684;DHT22;24910;53.248;-6.134;2022-12-01T08:50:22;10.90;90.50
38684;DHT22;24910;53.248;-6.134;2022-12-01T08:52:51;10.90;90.50
38684;DHT22;24910;53.248;-6.134;2022-12-01T08:55:20;10.90;90.50
38684;DHT22;24910;53.248;-6.134;2022-12-01T08:57:50;10.90;90.40
38684;DHT22;24910;53.248;-6.134;2022-12-01T09:00:19;10.80;90.40
38684;DHT22;24910;53.248;-6.134;2022-12-01T09:02:48;10.90;90.50
38684;DHT22;24910;53.248;-6.134;2022-12-01T09:05:17;10.80;90.50
38684;DHT22;24910;53.248;-6.134;2022-12-01T09:07:48;10.90;90.50
38684;DHT22;24910;53.248;-6.134;2022-12-01T09:10:37;10.80;90.90
38684;DHT22;24910;53.248;-6.134;2022-12-01T09:13:06;10.90;90.50
38684;DHT22;24910;53.248;-6.134;2022-12-01T09:15:35;10.90;90.50
38684;DHT22;24910;53.248;-6.134;2022-12-01T09:18:04;11.00;90.40
38684;DHT22;24910;53.248;-6.134;2022-12-01T09:20:33;11.00;90.30
38684;DHT22;24910;53.248;-6.134;2022-12-01T09:23:04;11.10;90.30
38684;DHT22;24910;53.248;-6.134;2022-12-01T09:25:33;11.10;90.20
38684;DHT22;24910;53.248;-6.134;2022-12-01T09:28:02;11.20;90.10
38684;DHT22;24910;53.248;-6.134;2022-12-01T09:30:31;11.20;90.10
38684;DHT22;24910;53.248;-6.134;2022-12-01T09:33:02;11.20;90.00
38684;DHT22;24910;53.248;-6.134;2022-12-01T09:35:31;11.30;90.00
38684;DHT22;24910;53.248;-6.134;2022-12-01T09:38:00;11.30;89.80
38684;DHT22;24910;53.248;-6.134;2022-12-01T09:40:35;11.30;89.60
38684;DHT22;24910;53.248;-6.134;2022-12-01T09:43:14;11.40;89.50
38684;DHT22;24910;53.248;-6.134;2022-12-01T09:45:47;11.40;89.30
38684;DHT22;24910;53.248;-6.134;2022-12-01T09:48:25;11.40;89.10
38684;DHT22;24910;53.248;-6.134;2022-12-01T09:50:55;11.40;88.90
38684;DHT22;24910;53.248;-6.134;2022-12-01T09:53:26;11.50;88.90
38684;DHT22;24910;53.248;-6.134;2022-12-01T09:55:57;11.60;88.80
38684;DHT22;24910;53.248;-6.134;2022-12-01T09:58:36;11.60;88.50
38684;DHT22;24910;53.248;-6.134;2022-12-01T10:01:09;11.70;88.50
38684;DHT22;24910;53.248;-6.134;2022-12-01T10:03:46;11.70;88.10
38684;DHT22;24910;53.248;-6.134;2022-12-01T10:06:23;11.80;87.90
38684;DHT22;24910;53.248;-6.134;2022-12-01T10:09:01;11.80;87.60
38684;DHT22;24910;53.248;-6.134;2022-12-01T10:11:37;11.80;87.40
38684;DHT22;24910;53.248;-6.134;2022-12-01T10:14:12;11.80;87.20
38684;DHT22;24910;53.248;-6.134;2022-12-01T10:16:54;11.90;87.00
38684;DHT22;24910;53.248;-6.134;2022-12-01T10:19:32;11.90;86.80
38684;DHT22;24910;53.248;-6.134;2022-12-01T10:22:16;11.90;86.70
38684;DHT22;24910;53.248;-6.134;2022-12-01T10:24:53;11.90;86.50
38684;DHT22;24910;53.248;-6.134;2022-12-01T10:27:37;12.00;86.40
38684;DHT22;24910;53.248;-6.134;2022-12-01T10:30:11;12.10;86.30
38684;DHT22;24910;53.248;-6.134;2022-12-01T10:32:50;12.20;86.20
38684;DHT22;24910;53.248;-6.134;2022-12-01T10:35:21;12.30;85.90
38684;DHT22;24910;53.248;-6.134;2022-12-01T10:37:53;12.40;85.70
38684;DHT22;24910;53.248;-6.134;2022-12-01T10:40:25;12.50;85.40
38684;DHT22;24910;53.248;-6.134;2022-12-01T10:42:56;12.60;85.00
38684;DHT22;24910;53.248;-6.134;2022-12-01T10:45:26;12.70;84.70
38684;DHT22;24910;53.248;-6.134;2022-12-01T10:48:14;12.70;84.40
38684;DHT22;24910;53.248;-6.134;2022-12-01T10:50:47;12.70;84.90
38684;DHT22;24910;53.248;-6.134;2022-12-01T10:53:29;12.70;83.90
38684;DHT22;24910;53.248;-6.134;2022-12-01T10:56:03;12.80;83.60
38684;DHT22;24910;53.248;-6.134;2022-12-01T10:58:42;12.80;83.40
38684;DHT22;24910;53.248;-6.134;2022-12-01T11:01:18;12.80;83.00
38684;DHT22;24910;53.248;-6.134;2022-12-01T11:03:50;12.80;82.80
38684;DHT22;24910;53.248;-6.134;2022-12-01T11:06:23;12.90;82.50
38684;DHT22;24910;53.248;-6.134;2022-12-01T11:08:55;12.90;82.20
38684;DHT22;24910;53.248;-6.134;2022-12-01T11:11:28;13.00;82.00
38684;DHT22;24910;53.248;-6.134;2022-12-01T11:14:04;13.00;81.70
38684;DHT22;24910;53.248;-6.134;2022-12-01T11:16:39;13.00;81.60
38684;DHT22;24910;53.248;-6.134;2022-12-01T11:19:21;13.10;81.50
38684;DHT22;24910;53.248;-6.134;2022-12-01T11:21:56;13.10;82.20
38684;DHT22;24910;53.248;-6.134;2022-12-01T11:24:38;13.20;81.40
38684;DHT22;24910;53.248;-6.134;2022-12-01T11:27:15;13.20;81.20
38684;DHT22;24910;53.248;-6.134;2022-12-01T11:29:49;13.20;81.10
38684;DHT22;24910;53.248;-6.134;2022-12-01T11:32:22;13.30;81.20
38684;DHT22;24910;53.248;-6.134;2022-12-01T11:34:55;13.30;81.10
38684;DHT22;24910;53.248;-6.134;2022-12-01T11:37:27;13.30;81.10
38684;DHT22;24910;53.248;-6.134;2022-12-01T11:40:11;13.30;81.00
38684;DHT22;24910;53.248;-6.134;2022-12-01T11:42:46;13.30;80.90
38684;DHT22;24910;53.248;-6.134;2022-12-01T11:45:27;13.30;80.80
38684;DHT22;24910;53.248;-6.134;2022-12-01T11:47:58;13.30;80.70
38684;DHT22;24910;53.248;-6.134;2022-12-01T11:50:30;13.30;80.80
38684;DHT22;24910;53.248;-6.134;2022-12-01T11:53:00;13.20;81.00
38684;DHT22;24910;53.248;-6.134;2022-12-01T11:55:30;13.20;80.80
38684;DHT22;24910;53.248;-6.134;2022-12-01T11:58:01;13.20;80.70
38684;DHT22;24910;53.248;-6.134;2022-12-01T12:00:42;13.20;80.70
38684;DHT22;24910;53.248;-6.134;2022-12-01T12:03:22;13.20;80.70
38684;DHT22;24910;53.248;-6.134;2022-12-01T12:06:03;13.20;80.80
38684;DHT22;24910;53.248;-6.134;2022-12-01T12:09:06;13.20;81.00
38684;DHT22;24910;53.248;-6.134;2022-12-01T12:11:45;13.10;81.20
38684;DHT22;24910;53.248;-6.134;2022-12-01T12:14:38;13.10;81.50
38684;DHT22;24910;53.248;-6.134;2022-12-01T12:17:20;13.00;81.60
38684;DHT22;24910;53.248;-6.134;2022-12-01T12:20:01;13.00;81.90
38684;DHT22;24910;53.248;-6.134;2022-12-01T12:22:43;13.00;82.00
38684;DHT22;24910;53.248;-6.134;2022-12-01T12:25:29;13.00;82.10
38684;DHT22;24910;53.248;-6.134;2022-12-01T12:28:15;13.00;82.20
38684;DHT22;24910;53.248;-6.134;2022-12-01T12:30:54;13.10;82.30
38684;DHT22;24910;53.248;-6.134;2022-12-01T12:33:42;13.20;82.20
38684;DHT22;24910;53.248;-6.134;2022-12-01T12:36:20;13.30;82.10
38684;DHT22;24910;53.248;-6.134;2022-12-01T12:39:01;13.30;81.90
38684;DHT22;24910;53.248;-6.134;2022-12-01T12:41:43;13.30;81.60
38684;DHT22;24910;53.248;-6.134;2022-12-01T12:44:29;13.40;81.50
38684;DHT22;24910;53.248;-6.134;2022-12-01T12:47:11;13.40;81.20
38684;DHT22;24910;53.248;-6.134;2022-12-01T12:49:51;13.40;81.00
38684;DHT22;24910;53.248;-6.134;2022-12-01T12:52:28;13.50;80.90
38684;DHT22;24910;53.248;-6.134;2022-12-01T12:55:09;13.50;80.70
38684;DHT22;24910;53.248;-6.134;2022-12-01T12:57:42;13.40;80.50
38684;DHT22;24910;53.248;-6.134;2022-12-01T13:00:15;13.50;80.40
38684;DHT22;24910;53.248;-6.134;2022-12-01T13:02:48;13.40;80.20
38684;DHT22;24910;53.248;-6.134;2022-12-01T13:05:24;13.40;80.00
38684;DHT22;24910;53.248;-6.134;2022-12-01T13:07:58;13.40;79.90
38684;DHT22;24910;53.248;-6.134;2022-12-01T13:10:35;13.40;79.80
38684;DHT22;24910;53.248;-6.134;2022-12-01T13:13:16;13.40;79.60
38684;DHT22;24910;53.248;-6.134;2022-12-01T13:15:48;13.40;79.50
38684;DHT22;24910;53.248;-6.134;2022-12-01T13:18:32;13.40;79.40
38684;DHT22;24910;53.248;-6.134;2022-12-01T13:21:05;13.30;79.90
38684;DHT22;24910;53.248;-6.134;2022-12-01T13:23:36;13.40;79.10
38684;DHT22;24910;53.248;-6.134;2022-12-01T13:26:07;13.30;79.00
38684;DHT22;24910;53.248;-6.134;2022-12-01T13:28:40;13.30;79.10
38684;DHT22;24910;53.248;-6.134;2022-12-01T13:31:11;13.40;79.20
38684;DHT22;24910;53.248;-6.134;2022-12-01T13:33:52;13.30;79.00
38684;DHT22;24910;53.248;-6.134;2022-12-01T13:36:23;13.30;78.90
38684;DHT22;24910;53.248;-6.134;2022-12-01T13:39:17;13.30;79.00
38684;DHT22;24910;53.248;-6.134;2022-12-01T13:41:57;13.20;79.00
38684;DHT22;24910;53.248;-6.134;2022-12-01T13:44:30;13.20;79.00
38684;DHT22;24910;53.248;-6.134;2022-12-01T13:47:03;13.10;79.00
38684;DHT22;24910;53.248;-6.134;2022-12-01T13:49:39;13.10;79.10
38684;DHT22;24910;53.248;-6.134;2022-12-01T13:52:25;13.00;79.10
38684;DHT22;24910;53.248;-6.134;2022-12-01T14:01:43;13.00;79.50
38684;DHT22;24910;53.248;-6.134;2022-12-01T14:04:29;13.00;79.70
38684;DHT22;24910;53.248;-6.134;2022-12-01T14:07:25;13.00;79.90
38684;DHT22;24910;53.248;-6.134;2022-12-01T14:10:04;12.90;79.90
38684;DHT22;24910;53.248;-6.134;2022-12-01T14:12:36;12.90;80.10
38684;DHT22;24910;53.248;-6.134;2022-12-01T14:15:26;12.90;80.30
38684;DHT22;24910;53.248;-6.134;2022-12-01T14:18:03;12.90;80.30
38684;DHT22;24910;53.248;-6.134;2022-12-01T14:20:35;12.90;80.40
38684;DHT22;24910;53.248;-6.134;2022-12-01T14:23:17;12.90;80.40
38684;DHT22;24910;53.248;-6.134;2022-12-01T14:26:08;12.90;80.50
38684;DHT22;24910;53.248;-6.134;2022-12-01T14:35:02;12.90;80.60
38684;DHT22;24910;53.248;-6.134;2022-12-01T14:37:40;12.90;80.70
38684;DHT22;24910;53.248;-6.134;2022-12-01T14:40:22;12.80;80.70
38684;DHT22;24910;53.248;-6.134;2022-12-01T14:42:54;12.80;80.70
38684;DHT22;24910;53.248;-6.134;2022-12-01T14:45:55;12.80;80.80
38684;DHT22;24910;53.248;-6.134;2022-12-01T14:48:36;12.80;80.60
38684;DHT22;24910;53.248;-6.134;2022-12-01T14:51:21;12.70;80.50
38684;DHT22;24910;53.248;-6.134;2022-12-01T14:53:51;12.70;80.30
38684;DHT22;24910;53.248;-6.134;2022-12-01T14:56:23;12.70;80.30
38684;DHT22;24910;53.248;-6.134;2022-12-01T14:58:56;12.70;80.20
38684;DHT22;24910;53.248;-6.134;2022-12-01T15:01:30;12.70;80.00
38684;DHT22;24910;53.248;-6.134;2022-12-01T15:04:03;12.70;80.00
38684;DHT22;24910;53.248;-6.134;2022-12-01T15:06:34;12.70;80.00
38684;DHT22;24910;53.248;-6.134;2022-12-01T15:09:10;12.60;79.80
38684;DHT22;24910;53.248;-6.134;2022-12-01T15:12:03;12.60;79.70
38684;DHT22;24910;53.248;-6.134;2022-12-01T15:14:35;12.60;79.60
38684;DHT22;24910;53.248;-6.134;2022-12-01T15:17:05;12.50;79.60
38684;DHT22;24910;53.248;-6.134;2022-12-01T15:19:37;12.50;79.50
38684;DHT22;24910;53.248;-6.134;2022-12-01T15:22:14;12.50;79.30
38684;DHT22;24910;53.248;-6.134;2022-12-01T15:24:45;12.50;79.20
38684;DHT22;24910;53.248;-6.134;2022-12-01T15:27:27;12.40;79.10
38684;DHT22;24910;53.248;-6.134;2022-12-01T15:29:57;12.40;78.90
38684;DHT22;24910;53.248;-6.134;2022-12-01T15:32:31;12.40;78.90
38684;DHT22;24910;53.248;-6.134;2022-12-01T15:35:05;12.40;78.70
38684;DHT22;24910;53.248;-6.134;2022-12-01T15:37:41;12.30;78.60
38684;DHT22;24910;53.248;-6.134;2022-12-01T15:40:15;12.30;78.50
38684;DHT22;24910;53.248;-6.134;2022-12-01T15:43:13;12.30;78.40
38684;DHT22;24910;53.248;-6.134;2022-12-01T15:45:52;12.20;78.30
38684;DHT22;24910;53.248;-6.134;2022-12-01T15:48:29;12.20;78.20
38684;DHT22;24910;53.248;-6.134;2022-12-01T15:51:02;12.10;78.20
38684;DHT22;24910;53.248;-6.134;2022-12-01T15:53:34;12.10;78.20
38684;DHT22;24910;53.248;-6.134;2022-12-01T15:56:06;12.10;78.20
38684;DHT22;24910;53.248;-6.134;2022-12-01T15:58:40;12.00;78.20
38684;DHT22;24910;53.248;-6.134;2022-12-01T16:01:12;12.00;78.20
38684;DHT22;24910;53.248;-6.134;2022-12-01T16:03:55;12.00;78.30
38684;DHT22;24910;53.248;-6.134;2022-12-01T16:06:26;11.90;78.30
38684;DHT22;24910;53.248;-6.134;2022-12-01T16:09:00;11.90;78.40
38684;DHT22;24910;53.248;-6.134;2022-12-01T16:11:30;11.90;78.60
38684;DHT22;24910;53.248;-6.134;2022-12-01T16:14:03;11.80;78.70